sensor_id;sensor_type;location;lat;lon;timestamp;P1;durP1;ratioP1;P2;durP2;ratioP2
51981;SDS011;37998;53.416;6.730;2024-02-28T00:01:50;48.08;;;29.50;;
51981;SDS011;37998;53.416;6.730;2024-02-28T00:04:17;64.28;;;32.35;;
51981;SDS011;37998;53.416;6.730;2024-02-28T00:06:43;56.50;;;31.08;;
51981;SDS011;37998;53.416;6.730;2024-02-28T00:09:11;59.53;;;30.85;;
51981;SDS011;37998;53.416;6.730;2024-02-28T00:11:44;54.17;;;31.40;;
51981;SDS011;37998;53.416;6.730;2024-02-28T00:14:11;54.03;;;31.10;;
51981;SDS011;37998;53.416;6.730;2024-02-28T00:16:40;62.72;;;30.50;;
51981;SDS011;37998;53.416;6.730;2024-02-28T00:19:07;63.50;;;30.95;;
51981;SDS011;37998;53.416;6.730;2024-02-28T00:21:33;70.53;;;31.75;;
51981;SDS011;37998;53.416;6.730;2024-02-28T00:23:59;68.40;;;32.72;;
51981;SDS011;37998;53.416;6.730;2024-02-28T00:26:25;64.40;;;30.75;;
51981;SDS011;37998;53.416;6.730;2024-02-28T00:28:51;64.68;;;30.52;;
51981;SDS011;37998;53.416;6.730;2024-02-28T00:31:17;51.20;;;29.02;;
51981;SDS011;37998;53.416;6.730;2024-02-28T00:33:42;60.88;;;29.42;;
51981;SDS011;37998;53.416;6.730;2024-02-28T00:36:08;54.45;;;29.13;;
51981;SDS011;37998;53.416;6.730;2024-02-28T00:38:34;54.75;;;30.88;;
51981;SDS011;37998;53.416;6.730;2024-02-28T00:41:00;56.58;;;30.73;;
51981;SDS011;37998;53.416;6.730;2024-02-28T00:43:26;54.40;;;28.70;;
51981;SDS011;37998;53.416;6.730;2024-02-28T00:45:52;46.40;;;29.60;;
51981;SDS011;37998;53.416;6.730;2024-02-28T00:48:18;49.20;;;29.83;;
51981;SDS011;37998;53.416;6.730;2024-02-28T00:50:44;52.33;;;29.25;;
51981;SDS011;37998;53.416;6.730;2024-02-28T00:53:10;50.00;;;28.85;;
51981;SDS011;37998;53.416;6.730;2024-02-28T00:55:36;46.55;;;27.63;;
51981;SDS011;37998;53.416;6.730;2024-02-28T00:58:02;45.63;;;27.63;;
51981;SDS011;37998;53.416;6.730;2024-02-28T01:00:28;50.25;;;28.40;;
51981;SDS011;37998;53.416;6.730;2024-02-28T01:02:54;50.70;;;29.55;;
51981;SDS011;37998;53.416;6.730;2024-02-28T01:05:20;48.80;;;28.65;;
51981;SDS011;37998;53.416;6.730;2024-02-28T01:07:45;48.25;;;28.67;;
51981;SDS011;37998;53.416;6.730;2024-02-28T01:10:11;51.42;;;28.27;;
51981;SDS011;37998;53.416;6.730;2024-02-28T01:12:37;50.30;;;29.25;;
51981;SDS011;37998;53.416;6.730;2024-02-28T01:15:03;58.53;;;30.15;;
51981;SDS011;37998;53.416;6.730;2024-02-28T01:17:29;60.90;;;31.67;;
51981;SDS011;37998;53.416;6.730;2024-02-28T01:19:56;51.20;;;28.92;;
51981;SDS011;37998;53.416;6.730;2024-02-28T01:22:22;54.38;;;29.08;;
51981;SDS011;37998;53.416;6.730;2024-02-28T01:24:48;61.17;;;29.65;;
51981;SDS011;37998;53.416;6.730;2024-02-28T01:27:14;54.15;;;29.83;;
51981;SDS011;37998;53.416;6.730;2024-02-28T01:29:40;65.85;;;30.98;;
51981;SDS011;37998;53.416;6.730;2024-02-28T01:32:05;67.63;;;32.67;;
51981;SDS011;37998;53.416;6.730;2024-02-28T01:34:32;56.90;;;30.13;;
51981;SDS011;37998;53.416;6.730;2024-02-28T01:36:58;54.88;;;31.35;;
51981;SDS011;37998;53.416;6.730;2024-02-28T01:39:24;56.13;;;31.10;;
51981;SDS011;37998;53.416;6.730;2024-02-28T01:41:51;60.92;;;31.58;;
51981;SDS011;37998;53.416;6.730;2024-02-28T01:44:18;61.45;;;32.28;;
51981;SDS011;37998;53.416;6.730;2024-02-28T01:46:44;58.42;;;31.25;;
51981;SDS011;37998;53.416;6.730;2024-02-28T01:49:10;55.70;;;31.52;;
51981;SDS011;37998;53.416;6.730;2024-02-28T01:51:35;66.88;;;32.33;;
51981;SDS011;37998;53.416;6.730;2024-02-28T01:54:01;63.15;;;32.15;;
51981;SDS011;37998;53.416;6.730;2024-02-28T01:56:27;69.47;;;33.15;;
51981;SDS011;37998;53.416;6.730;2024-02-28T01:58:54;71.38;;;33.30;;
51981;SDS011;37998;53.416;6.730;2024-02-28T02:01:21;72.43;;;33.92;;
51981;SDS011;37998;53.416;6.730;2024-02-28T02:03:51;69.05;;;34.15;;
51981;SDS011;37998;53.416;6.730;2024-02-28T02:06:17;71.93;;;33.97;;
51981;SDS011;37998;53.416;6.730;2024-02-28T02:08:43;58.67;;;31.85;;
51981;SDS011;37998;53.416;6.730;2024-02-28T02:11:09;61.17;;;34.08;;
51981;SDS011;37998;53.416;6.730;2024-02-28T02:13:35;53.97;;;31.20;;
51981;SDS011;37998;53.416;6.730;2024-02-28T02:16:12;54.58;;;30.85;;
51981;SDS011;37998;53.416;6.730;2024-02-28T02:18:38;52.40;;;30.40;;
51981;SDS011;37998;53.416;6.730;2024-02-28T02:21:04;50.25;;;28.58;;
51981;SDS011;37998;53.416;6.730;2024-02-28T02:23:31;47.65;;;29.25;;
51981;SDS011;37998;53.416;6.730;2024-02-28T02:25:57;44.13;;;26.65;;
51981;SDS011;37998;53.416;6.730;2024-02-28T02:28:23;44.78;;;26.48;;
51981;SDS011;37998;53.416;6.730;2024-02-28T02:30:49;44.85;;;26.80;;
51981;SDS011;37998;53.416;6.730;2024-02-28T02:33:15;41.67;;;25.73;;
51981;SDS011;37998;53.416;6.730;2024-02-28T02:35:41;45.00;;;27.67;;
51981;SDS011;37998;53.416;6.730;2024-02-28T02:38:07;39.50;;;26.10;;
51981;SDS011;37998;53.416;6.730;2024-02-28T02:40:33;40.13;;;25.50;;
51981;SDS011;37998;53.416;6.730;2024-02-28T02:42:59;42.20;;;26.48;;
51981;SDS011;37998;53.416;6.730;2024-02-28T02:45:24;47.67;;;28.67;;
51981;SDS011;37998;53.416;6.730;2024-02-28T02:47:50;41.63;;;26.25;;
51981;SDS011;37998;53.416;6.730;2024-02-28T02:50:16;46.42;;;29.13;;
51981;SDS011;37998;53.416;6.730;2024-02-28T02:52:42;44.95;;;27.35;;
51981;SDS011;37998;53.416;6.730;2024-02-28T02:55:08;43.47;;;27.92;;
51981;SDS011;37998;53.416;6.730;2024-02-28T02:57:35;48.40;;;28.52;;
51981;SDS011;37998;53.416;6.730;2024-02-28T03:00:01;43.65;;;27.67;;
51981;SDS011;37998;53.416;6.730;2024-02-28T03:02:27;49.75;;;28.42;;
51981;SDS011;37998;53.416;6.730;2024-02-28T03:04:53;48.45;;;29.77;;
51981;SDS011;37998;53.416;6.730;2024-02-28T03:07:19;48.38;;;29.10;;
51981;SDS011;37998;53.416;6.730;2024-02-28T03:09:45;45.80;;;28.08;;
51981;SDS011;37998;53.416;6.730;2024-02-28T03:12:10;50.95;;;29.67;;
51981;SDS011;37998;53.416;6.730;2024-02-28T03:14:36;44.50;;;28.70;;
51981;SDS011;37998;53.416;6.730;2024-02-28T03:17:02;45.22;;;27.88;;
51981;SDS011;37998;53.416;6.730;2024-02-28T03:19:28;46.45;;;29.15;;
51981;SDS011;37998;53.416;6.730;2024-02-28T03:21:54;46.92;;;29.35;;
51981;SDS011;37998;53.416;6.730;2024-02-28T03:24:20;49.65;;;28.60;;
51981;SDS011;37998;53.416;6.730;2024-02-28T03:26:46;49.83;;;30.17;;
51981;SDS011;37998;53.416;6.730;2024-02-28T03:29:12;46.47;;;29.23;;
51981;SDS011;37998;53.416;6.730;2024-02-28T03:31:38;49.47;;;30.52;;
51981;SDS011;37998;53.416;6.730;2024-02-28T03:34:04;47.42;;;28.13;;
51981;SDS011;37998;53.416;6.730;2024-02-28T03:36:30;52.13;;;29.83;;
51981;SDS011;37998;53.416;6.730;2024-02-28T03:38:56;57.28;;;30.75;;
51981;SDS011;37998;53.416;6.730;2024-02-28T03:41:22;47.90;;;28.58;;
51981;SDS011;37998;53.416;6.730;2024-02-28T03:43:48;49.17;;;28.35;;
51981;SDS011;37998;53.416;6.730;2024-02-28T03:46:14;44.30;;;28.98;;
51981;SDS011;37998;53.416;6.730;2024-02-28T03:48:40;48.33;;;29.35;;
51981;SDS011;37998;53.416;6.730;2024-02-28T03:51:06;46.03;;;28.75;;
51981;SDS011;37998;53.416;6.730;2024-02-28T03:53:32;50.60;;;30.10;;
51981;SDS011;37998;53.416;6.730;2024-02-28T03:55:58;47.63;;;28.67;;
51981;SDS011;37998;53.416;6.730;2024-02-28T03:58:24;46.15;;;28.45;;
51981;SDS011;37998;53.416;6.730;2024-02-28T04:00:49;48.65;;;26.92;;
51981;SDS011;37998;53.416;6.730;2024-02-28T04:03:15;46.03;;;28.58;;
51981;SDS011;37998;53.416;6.730;2024-02-28T04:05:42;47.38;;;28.10;;
51981;SDS011;37998;53.416;6.730;2024-02-28T04:08:08;50.17;;;29.27;;
51981;SDS011;37998;53.416;6.730;2024-02-28T04:10:33;43.78;;;27.25;;
51981;SDS011;37998;53.416;6.730;2024-02-28T04:12:59;44.40;;;26.85;;
51981;SDS011;37998;53.416;6.730;2024-02-28T04:15:25;42.33;;;26.95;;
51981;SDS011;37998;53.416;6.730;2024-02-28T04:17:51;42.17;;;27.05;;
51981;SDS011;37998;53.416;6.730;2024-02-28T04:20:17;48.95;;;28.83;;
51981;SDS011;37998;53.416;6.730;2024-02-28T04:22:43;45.53;;;27.23;;
51981;SDS011;37998;53.416;6.730;2024-02-28T04:25:09;42.13;;;26.20;;
51981;SDS011;37998;53.416;6.730;2024-02-28T04:27:36;45.83;;;27.13;;
51981;SDS011;37998;53.416;6.730;2024-02-28T04:30:03;41.92;;;26.13;;
51981;SDS011;37998;53.416;6.730;2024-02-28T04:32:30;42.38;;;26.15;;
51981;SDS011;37998;53.416;6.730;2024-02-28T04:34:55;46.67;;;28.05;;
51981;SDS011;37998;53.416;6.730;2024-02-28T04:37:21;42.22;;;27.17;;
51981;SDS011;37998;53.416;6.730;2024-02-28T04:39:48;45.47;;;26.85;;
51981;SDS011;37998;53.416;6.730;2024-02-28T04:42:15;45.85;;;29.80;;
51981;SDS011;37998;53.416;6.730;2024-02-28T04:44:41;41.67;;;26.30;;
51981;SDS011;37998;53.416;6.730;2024-02-28T04:47:07;44.30;;;26.88;;
51981;SDS011;37998;53.416;6.730;2024-02-28T04:49:36;47.80;;;28.90;;
51981;SDS011;37998;53.416;6.730;2024-02-28T04:52:03;43.95;;;27.58;;
51981;SDS011;37998;53.416;6.730;2024-02-28T04:54:29;45.97;;;28.40;;
51981;SDS011;37998;53.416;6.730;2024-02-28T04:56:55;42.50;;;26.98;;
51981;SDS011;37998;53.416;6.730;2024-02-28T04:59:21;45.45;;;27.08;;
51981;SDS011;37998;53.416;6.730;2024-02-28T05:01:47;46.00;;;27.30;;
51981;SDS011;37998;53.416;6.730;2024-02-28T05:04:13;38.95;;;26.33;;
51981;SDS011;37998;53.416;6.730;2024-02-28T05:06:39;45.00;;;27.30;;
51981;SDS011;37998;53.416;6.730;2024-02-28T05:09:05;42.10;;;26.48;;
51981;SDS011;37998;53.416;6.730;2024-02-28T05:11:31;46.45;;;27.35;;
51981;SDS011;37998;53.416;6.730;2024-02-28T05:13:57;45.00;;;27.85;;
51981;SDS011;37998;53.416;6.730;2024-02-28T05:16:23;41.22;;;25.98;;
51981;SDS011;37998;53.416;6.730;2024-02-28T05:18:49;43.17;;;26.63;;
51981;SDS011;37998;53.416;6.730;2024-02-28T05:21:15;45.95;;;28.42;;
51981;SDS011;37998;53.416;6.730;2024-02-28T05:23:41;47.38;;;28.58;;
51981;SDS011;37998;53.416;6.730;2024-02-28T05:26:06;46.08;;;28.25;;
51981;SDS011;37998;53.416;6.730;2024-02-28T05:28:33;43.10;;;27.73;;
51981;SDS011;37998;53.416;6.730;2024-02-28T05:31:03;42.13;;;26.50;;
51981;SDS011;37998;53.416;6.730;2024-02-28T05:33:49;42.72;;;26.77;;
51981;SDS011;37998;53.416;6.730;2024-02-28T05:36:16;43.47;;;26.90;;
51981;SDS011;37998;53.416;6.730;2024-02-28T05:38:42;45.25;;;27.45;;
51981;SDS011;37998;53.416;6.730;2024-02-28T05:41:08;43.75;;;27.13;;
51981;SDS011;37998;53.416;6.730;2024-02-28T05:43:34;48.50;;;29.05;;
51981;SDS011;37998;53.416;6.730;2024-02-28T05:46:02;40.80;;;25.95;;
51981;SDS011;37998;53.416;6.730;2024-02-28T05:48:28;44.00;;;28.33;;
51981;SDS011;37998;53.416;6.730;2024-02-28T05:50:55;44.03;;;27.52;;
51981;SDS011;37998;53.416;6.730;2024-02-28T05:53:20;43.00;;;27.45;;
51981;SDS011;37998;53.416;6.730;2024-02-28T05:55:46;49.35;;;28.80;;
51981;SDS011;37998;53.416;6.730;2024-02-28T05:58:13;45.80;;;27.13;;
51981;SDS011;37998;53.416;6.730;2024-02-28T06:00:39;47.70;;;28.13;;
51981;SDS011;37998;53.416;6.730;2024-02-28T06:03:05;47.90;;;29.40;;
51981;SDS011;37998;53.416;6.730;2024-02-28T06:05:31;47.60;;;28.02;;
51981;SDS011;37998;53.416;6.730;2024-02-28T06:07:56;47.75;;;28.33;;
51981;SDS011;37998;53.416;6.730;2024-02-28T06:10:22;46.63;;;27.90;;
51981;SDS011;37998;53.416;6.730;2024-02-28T06:12:48;48.95;;;30.00;;
51981;SDS011;37998;53.416;6.730;2024-02-28T06:15:14;44.35;;;27.23;;
51981;SDS011;37998;53.416;6.730;2024-02-28T06:17:41;47.78;;;29.45;;
51981;SDS011;37998;53.416;6.730;2024-02-28T06:20:07;46.83;;;28.67;;
51981;SDS011;37998;53.416;6.730;2024-02-28T06:22:33;46.15;;;27.88;;
51981;SDS011;37998;53.416;6.730;2024-02-28T06:24:59;47.22;;;27.75;;
51981;SDS011;37998;53.416;6.730;2024-02-28T06:27:24;46.65;;;28.33;;
51981;SDS011;37998;53.416;6.730;2024-02-28T06:29:52;46.30;;;28.83;;
51981;SDS011;37998;53.416;6.730;2024-02-28T06:32:18;47.20;;;29.98;;
51981;SDS011;37998;53.416;6.730;2024-02-28T06:34:44;46.90;;;29.20;;
51981;SDS011;37998;53.416;6.730;2024-02-28T06:37:10;48.08;;;29.33;;
51981;SDS011;37998;53.416;6.730;2024-02-28T06:39:35;50.35;;;29.95;;
51981;SDS011;37998;53.416;6.730;2024-02-28T06:42:01;53.80;;;29.40;;
51981;SDS011;37998;53.416;6.730;2024-02-28T06:44:28;50.92;;;30.70;;
51981;SDS011;37998;53.416;6.730;2024-02-28T06:46:54;51.25;;;30.38;;
51981;SDS011;37998;53.416;6.730;2024-02-28T06:49:19;53.95;;;31.10;;
51981;SDS011;37998;53.416;6.730;2024-02-28T06:51:45;53.53;;;30.92;;
51981;SDS011;37998;53.416;6.730;2024-02-28T06:54:11;46.50;;;30.42;;
51981;SDS011;37998;53.416;6.730;2024-02-28T06:56:37;58.65;;;31.70;;
51981;SDS011;37998;53.416;6.730;2024-02-28T06:59:03;53.33;;;31.27;;
51981;SDS011;37998;53.416;6.730;2024-02-28T07:01:29;54.22;;;31.63;;
51981;SDS011;37998;53.416;6.730;2024-02-28T07:03:55;57.83;;;32.33;;
51981;SDS011;37998;53.416;6.730;2024-02-28T07:06:21;57.63;;;32.25;;
51981;SDS011;37998;53.416;6.730;2024-02-28T07:08:47;62.50;;;33.60;;
51981;SDS011;37998;53.416;6.730;2024-02-28T07:11:16;62.47;;;32.08;;
51981;SDS011;37998;53.416;6.730;2024-02-28T07:13:42;56.40;;;31.92;;
51981;SDS011;37998;53.416;6.730;2024-02-28T07:16:08;59.03;;;32.80;;
51981;SDS011;37998;53.416;6.730;2024-02-28T07:18:34;58.60;;;31.92;;
51981;SDS011;37998;53.416;6.730;2024-02-28T07:21:00;63.25;;;32.80;;
51981;SDS011;37998;53.416;6.730;2024-02-28T07:23:26;64.93;;;31.85;;
51981;SDS011;37998;53.416;6.730;2024-02-28T07:25:51;62.65;;;32.28;;
51981;SDS011;37998;53.416;6.730;2024-02-28T07:28:17;66.80;;;32.85;;
51981;SDS011;37998;53.416;6.730;2024-02-28T07:30:43;65.63;;;32.60;;
51981;SDS011;37998;53.416;6.730;2024-02-28T07:33:11;60.13;;;32.47;;
51981;SDS011;37998;53.416;6.730;2024-02-28T07:35:51;69.30;;;34.40;;
51981;SDS011;37998;53.416;6.730;2024-02-28T07:38:18;66.20;;;34.00;;
51981;SDS011;37998;53.416;6.730;2024-02-28T07:40:47;65.63;;;33.40;;
51981;SDS011;37998;53.416;6.730;2024-02-28T07:43:13;65.18;;;33.10;;
51981;SDS011;37998;53.416;6.730;2024-02-28T07:45:39;67.75;;;34.75;;
51981;SDS011;37998;53.416;6.730;2024-02-28T07:48:05;71.90;;;34.53;;
51981;SDS011;37998;53.416;6.730;2024-02-28T07:50:32;70.07;;;34.70;;
51981;SDS011;37998;53.416;6.730;2024-02-28T07:52:57;72.97;;;35.88;;
51981;SDS011;37998;53.416;6.730;2024-02-28T07:55:23;77.28;;;35.65;;
51981;SDS011;37998;53.416;6.730;2024-02-28T07:57:53;84.20;;;35.75;;
51981;SDS011;37998;53.416;6.730;2024-02-28T08:00:19;73.25;;;36.20;;
51981;SDS011;37998;53.416;6.730;2024-02-28T08:02:46;81.72;;;38.30;;
51981;SDS011;37998;53.416;6.730;2024-02-28T08:05:13;83.28;;;37.10;;
51981;SDS011;37998;53.416;6.730;2024-02-28T08:07:39;79.75;;;36.20;;
51981;SDS011;37998;53.416;6.730;2024-02-28T08:10:06;83.97;;;37.97;;
51981;SDS011;37998;53.416;6.730;2024-02-28T08:12:32;89.03;;;37.72;;
51981;SDS011;37998;53.416;6.730;2024-02-28T08:14:58;95.97;;;37.88;;
51981;SDS011;37998;53.416;6.730;2024-02-28T08:17:24;93.38;;;38.55;;
51981;SDS011;37998;53.416;6.730;2024-02-28T08:19:50;96.22;;;40.30;;
51981;SDS011;37998;53.416;6.730;2024-02-28T08:22:16;87.15;;;37.85;;
51981;SDS011;37998;53.416;6.730;2024-02-28T08:24:42;89.32;;;37.67;;
51981;SDS011;37998;53.416;6.730;2024-02-28T08:27:07;88.15;;;38.28;;
51981;SDS011;37998;53.416;6.730;2024-02-28T08:29:33;103.05;;;42.22;;
51981;SDS011;37998;53.416;6.730;2024-02-28T08:32:00;92.00;;;40.30;;
51981;SDS011;37998;53.416;6.730;2024-02-28T08:34:26;101.30;;;42.92;;
51981;SDS011;37998;53.416;6.730;2024-02-28T08:36:52;102.53;;;40.20;;
51981;SDS011;37998;53.416;6.730;2024-02-28T08:39:18;93.80;;;41.47;;
51981;SDS011;37998;53.416;6.730;2024-02-28T08:41:44;88.18;;;43.42;;
51981;SDS011;37998;53.416;6.730;2024-02-28T08:44:10;87.57;;;41.45;;
51981;SDS011;37998;53.416;6.730;2024-02-28T08:46:36;89.72;;;39.40;;
51981;SDS011;37998;53.416;6.730;2024-02-28T08:49:02;79.88;;;39.95;;
51981;SDS011;37998;53.416;6.730;2024-02-28T08:51:28;82.90;;;38.67;;
51981;SDS011;37998;53.416;6.730;2024-02-28T08:53:54;83.63;;;40.65;;
51981;SDS011;37998;53.416;6.730;2024-02-28T08:56:21;88.72;;;39.50;;
51981;SDS011;37998;53.416;6.730;2024-02-28T08:58:47;84.80;;;41.83;;
51981;SDS011;37998;53.416;6.730;2024-02-28T09:01:13;77.45;;;36.40;;
51981;SDS011;37998;53.416;6.730;2024-02-28T09:03:40;76.82;;;38.63;;
51981;SDS011;37998;53.416;6.730;2024-02-28T09:06:06;71.28;;;35.78;;
51981;SDS011;37998;53.416;6.730;2024-02-28T09:08:32;74.90;;;38.10;;
51981;SDS011;37998;53.416;6.730;2024-02-28T09:10:58;71.53;;;37.63;;
51981;SDS011;37998;53.416;6.730;2024-02-28T09:13:24;61.13;;;35.83;;
51981;SDS011;37998;53.416;6.730;2024-02-28T09:15:50;70.63;;;36.83;;
51981;SDS011;37998;53.416;6.730;2024-02-28T09:18:16;60.22;;;35.13;;
51981;SDS011;37998;53.416;6.730;2024-02-28T09:20:42;64.40;;;37.63;;
51981;SDS011;37998;53.416;6.730;2024-02-28T09:23:08;57.22;;;34.50;;
51981;SDS011;37998;53.416;6.730;2024-02-28T09:25:34;62.83;;;34.78;;
51981;SDS011;37998;53.416;6.730;2024-02-28T09:28:01;65.10;;;35.53;;
51981;SDS011;37998;53.416;6.730;2024-02-28T09:30:27;57.20;;;34.13;;
51981;SDS011;37998;53.416;6.730;2024-02-28T09:32:53;64.90;;;34.95;;
51981;SDS011;37998;53.416;6.730;2024-02-28T09:35:19;53.13;;;33.97;;
51981;SDS011;37998;53.416;6.730;2024-02-28T09:37:45;64.32;;;34.65;;
51981;SDS011;37998;53.416;6.730;2024-02-28T09:40:11;61.60;;;35.92;;
51981;SDS011;37998;53.416;6.730;2024-02-28T09:42:38;63.15;;;36.63;;
51981;SDS011;37998;53.416;6.730;2024-02-28T09:45:04;56.30;;;35.78;;
51981;SDS011;37998;53.416;6.730;2024-02-28T09:47:33;50.97;;;32.20;;
51981;SDS011;37998;53.416;6.730;2024-02-28T09:49:59;61.50;;;34.25;;
51981;SDS011;37998;53.416;6.730;2024-02-28T09:52:26;57.97;;;33.55;;
51981;SDS011;37998;53.416;6.730;2024-02-28T09:54:55;55.13;;;33.78;;
51981;SDS011;37998;53.416;6.730;2024-02-28T09:57:21;53.50;;;34.17;;
51981;SDS011;37998;53.416;6.730;2024-02-28T09:59:54;52.55;;;33.78;;
51981;SDS011;37998;53.416;6.730;2024-02-28T10:02:21;54.17;;;34.55;;
51981;SDS011;37998;53.416;6.730;2024-02-28T10:04:49;56.63;;;34.10;;
51981;SDS011;37998;53.416;6.730;2024-02-28T10:07:16;54.33;;;32.88;;
51981;SDS011;37998;53.416;6.730;2024-02-28T10:09:42;54.47;;;32.75;;
51981;SDS011;37998;53.416;6.730;2024-02-28T10:12:08;53.72;;;31.98;;
51981;SDS011;37998;53.416;6.730;2024-02-28T10:14:35;53.13;;;32.80;;
51981;SDS011;37998;53.416;6.730;2024-02-28T10:17:00;49.92;;;30.17;;
51981;SDS011;37998;53.416;6.730;2024-02-28T10:19:27;48.13;;;32.05;;
51981;SDS011;37998;53.416;6.730;2024-02-28T10:21:52;49.30;;;32.67;;
51981;SDS011;37998;53.416;6.730;2024-02-28T10:24:18;53.28;;;33.40;;
51981;SDS011;37998;53.416;6.730;2024-02-28T10:26:45;52.95;;;32.72;;
51981;SDS011;37998;53.416;6.730;2024-02-28T10:29:21;52.22;;;32.35;;
51981;SDS011;37998;53.416;6.730;2024-02-28T10:31:47;52.40;;;33.47;;
51981;SDS011;37998;53.416;6.730;2024-02-28T10:34:15;52.00;;;32.00;;
51981;SDS011;37998;53.416;6.730;2024-02-28T10:36:43;56.80;;;34.45;;
51981;SDS011;37998;53.416;6.730;2024-02-28T10:39:11;51.35;;;32.50;;
51981;SDS011;37998;53.416;6.730;2024-02-28T10:41:37;44.50;;;27.77;;
51981;SDS011;37998;53.416;6.730;2024-02-28T10:44:04;40.67;;;28.45;;
51981;SDS011;37998;53.416;6.730;2024-02-28T10:46:33;44.80;;;29.65;;
51981;SDS011;37998;53.416;6.730;2024-02-28T10:48:59;45.65;;;30.63;;
51981;SDS011;37998;53.416;6.730;2024-02-28T10:51:26;42.03;;;28.23;;
51981;SDS011;37998;53.416;6.730;2024-02-28T10:54:11;42.72;;;29.17;;
51981;SDS011;37998;53.416;6.730;2024-02-28T10:56:38;45.83;;;30.45;;
51981;SDS011;37998;53.416;6.730;2024-02-28T10:59:08;42.90;;;29.50;;
51981;SDS011;37998;53.416;6.730;2024-02-28T11:01:35;48.22;;;30.10;;
51981;SDS011;37998;53.416;6.730;2024-02-28T11:04:03;48.15;;;29.38;;
51981;SDS011;37998;53.416;6.730;2024-02-28T11:06:30;45.13;;;29.75;;
51981;SDS011;37998;53.416;6.730;2024-02-28T11:08:58;46.22;;;29.85;;
51981;SDS011;37998;53.416;6.730;2024-02-28T11:11:29;45.22;;;29.90;;
51981;SDS011;37998;53.416;6.730;2024-02-28T11:13:56;40.00;;;27.15;;
51981;SDS011;37998;53.416;6.730;2024-02-28T11:16:27;46.05;;;30.38;;
51981;SDS011;37998;53.416;6.730;2024-02-28T11:18:57;44.75;;;29.35;;
51981;SDS011;37998;53.416;6.730;2024-02-28T11:21:24;47.47;;;29.52;;
51981;SDS011;37998;53.416;6.730;2024-02-28T11:23:57;44.20;;;30.58;;
51981;SDS011;37998;53.416;6.730;2024-02-28T11:26:27;46.55;;;28.35;;
51981;SDS011;37998;53.416;6.730;2024-02-28T11:28:56;46.08;;;28.73;;
51981;SDS011;37998;53.416;6.730;2024-02-28T11:31:22;45.83;;;29.40;;
51981;SDS011;37998;53.416;6.730;2024-02-28T11:33:48;41.75;;;28.73;;
51981;SDS011;37998;53.416;6.730;2024-02-28T11:36:14;40.38;;;28.50;;
51981;SDS011;37998;53.416;6.730;2024-02-28T11:38:40;41.47;;;28.83;;
51981;SDS011;37998;53.416;6.730;2024-02-28T11:41:07;42.63;;;29.52;;
51981;SDS011;37998;53.416;6.730;2024-02-28T11:43:33;42.05;;;28.70;;
51981;SDS011;37998;53.416;6.730;2024-02-28T11:46:11;40.85;;;29.45;;
51981;SDS011;37998;53.416;6.730;2024-02-28T11:48:37;39.33;;;26.73;;
51981;SDS011;37998;53.416;6.730;2024-02-28T11:51:03;39.50;;;28.00;;
51981;SDS011;37998;53.416;6.730;2024-02-28T11:53:29;41.28;;;27.83;;
51981;SDS011;37998;53.416;6.730;2024-02-28T11:55:54;41.33;;;28.35;;
51981;SDS011;37998;53.416;6.730;2024-02-28T11:58:21;41.85;;;29.15;;
51981;SDS011;37998;53.416;6.730;2024-02-28T12:00:47;41.10;;;27.67;;
51981;SDS011;37998;53.416;6.730;2024-02-28T12:03:23;37.50;;;28.08;;
51981;SDS011;37998;53.416;6.730;2024-02-28T12:05:50;38.15;;;26.98;;
51981;SDS011;37998;53.416;6.730;2024-02-28T12:08:20;38.53;;;26.80;;
51981;SDS011;37998;53.416;6.730;2024-02-28T12:10:46;39.30;;;27.40;;
51981;SDS011;37998;53.416;6.730;2024-02-28T12:13:19;40.33;;;27.67;;
51981;SDS011;37998;53.416;6.730;2024-02-28T12:15:47;35.45;;;25.52;;
51981;SDS011;37998;53.416;6.730;2024-02-28T12:18:14;35.03;;;25.48;;
51981;SDS011;37998;53.416;6.730;2024-02-28T12:20:40;47.22;;;33.35;;
51981;SDS011;37998;53.416;6.730;2024-02-28T12:23:06;36.60;;;25.60;;
51981;SDS011;37998;53.416;6.730;2024-02-28T12:25:33;46.40;;;31.98;;
51981;SDS011;37998;53.416;6.730;2024-02-28T12:28:00;41.83;;;28.95;;
51981;SDS011;37998;53.416;6.730;2024-02-28T12:30:26;37.80;;;25.85;;
51981;SDS011;37998;53.416;6.730;2024-02-28T12:32:53;34.17;;;22.38;;
51981;SDS011;37998;53.416;6.730;2024-02-28T12:35:19;35.30;;;24.48;;
51981;SDS011;37998;53.416;6.730;2024-02-28T12:37:45;34.83;;;25.30;;
51981;SDS011;37998;53.416;6.730;2024-02-28T12:40:13;33.65;;;23.48;;
51981;SDS011;37998;53.416;6.730;2024-02-28T12:42:42;37.38;;;26.33;;
51981;SDS011;37998;53.416;6.730;2024-02-28T12:45:08;33.20;;;23.80;;
51981;SDS011;37998;53.416;6.730;2024-02-28T12:47:34;36.88;;;24.63;;
51981;SDS011;37998;53.416;6.730;2024-02-28T12:50:00;33.85;;;24.30;;
51981;SDS011;37998;53.416;6.730;2024-02-28T12:52:26;30.23;;;23.08;;
51981;SDS011;37998;53.416;6.730;2024-02-28T12:54:51;37.28;;;23.30;;
51981;SDS011;37998;53.416;6.730;2024-02-28T12:57:17;32.35;;;24.35;;
51981;SDS011;37998;53.416;6.730;2024-02-28T12:59:44;31.52;;;22.45;;
51981;SDS011;37998;53.416;6.730;2024-02-28T13:02:10;35.58;;;24.83;;
51981;SDS011;37998;53.416;6.730;2024-02-28T13:04:36;34.10;;;23.70;;
51981;SDS011;37998;53.416;6.730;2024-02-28T13:07:02;32.92;;;23.65;;
51981;SDS011;37998;53.416;6.730;2024-02-28T13:09:28;35.22;;;23.73;;
51981;SDS011;37998;53.416;6.730;2024-02-28T13:11:54;37.17;;;25.15;;
51981;SDS011;37998;53.416;6.730;2024-02-28T13:14:20;35.45;;;25.52;;
51981;SDS011;37998;53.416;6.730;2024-02-28T13:16:46;39.50;;;26.45;;
51981;SDS011;37998;53.416;6.730;2024-02-28T13:19:11;38.13;;;26.40;;
51981;SDS011;37998;53.416;6.730;2024-02-28T13:21:39;42.55;;;29.25;;
51981;SDS011;37998;53.416;6.730;2024-02-28T13:24:05;41.65;;;28.50;;
51981;SDS011;37998;53.416;6.730;2024-02-28T13:26:31;42.45;;;29.05;;
51981;SDS011;37998;53.416;6.730;2024-02-28T13:28:57;42.67;;;29.08;;
51981;SDS011;37998;53.416;6.730;2024-02-28T13:31:23;40.60;;;27.98;;
51981;SDS011;37998;53.416;6.730;2024-02-28T13:33:48;42.38;;;29.52;;
51981;SDS011;37998;53.416;6.730;2024-02-28T13:36:14;41.05;;;27.83;;
51981;SDS011;37998;53.416;6.730;2024-02-28T13:38:40;41.75;;;28.77;;
51981;SDS011;37998;53.416;6.730;2024-02-28T13:41:06;44.00;;;29.60;;
51981;SDS011;37998;53.416;6.730;2024-02-28T13:43:32;42.05;;;28.83;;
51981;SDS011;37998;53.416;6.730;2024-02-28T13:45:58;36.47;;;27.23;;
51981;SDS011;37998;53.416;6.730;2024-02-28T13:48:27;38.03;;;27.40;;
51981;SDS011;37998;53.416;6.730;2024-02-28T13:50:54;37.13;;;26.95;;
51981;SDS011;37998;53.416;6.730;2024-02-28T13:53:22;38.50;;;26.27;;
51981;SDS011;37998;53.416;6.730;2024-02-28T13:55:50;40.38;;;27.02;;
51981;SDS011;37998;53.416;6.730;2024-02-28T13:58:15;35.85;;;26.65;;
51981;SDS011;37998;53.416;6.730;2024-02-28T14:00:44;42.25;;;26.10;;
51981;SDS011;37998;53.416;6.730;2024-02-28T14:03:12;37.95;;;26.77;;
51981;SDS011;37998;53.416;6.730;2024-02-28T14:05:39;32.85;;;24.75;;
51981;SDS011;37998;53.416;6.730;2024-02-28T14:08:05;34.47;;;26.02;;
51981;SDS011;37998;53.416;6.730;2024-02-28T14:10:37;35.38;;;25.90;;
51981;SDS011;37998;53.416;6.730;2024-02-28T14:13:03;38.70;;;29.50;;
51981;SDS011;37998;53.416;6.730;2024-02-28T14:15:29;37.42;;;26.65;;
51981;SDS011;37998;53.416;6.730;2024-02-28T14:17:55;35.17;;;25.52;;